Cassels, Mississippi
Current Conditions -  °F | °C
As of 9:53 PM on Sunday 23 Nov 2014 (Local Time) from KMCB Reporting Station
Broken Clouds Broken Clouds  
Wind Chill: 64°   Ceiling: 1600
Heat Index: 64°   Visibility: 9mi
Dew Point: 62°   Wind: 10mph
Humidity: 93%   Direction: 210°SSW
Pressure: 29.69"   Gusts: NA
Location:  31.1819°N, 90.9008°W
Report Text: KMCB 240353Z AUTO 21009KT 9SM FEW009 BKN016 18/17 A2969 RMK AO2 SLP051 T01780167
Loading
Personal Weather Stations






























Interactive Weather Map New forecast layout! Learn more

10-Day Weather Forecast

Advertisements
Track Severe Weather on mobile